Time;durP1;ratioP1;P1;durP2;ratioP2;P2;SDS_P1;SDS_P2;PMS_P1;PMS_P2;Temp;Humidity;BMP_temperature;BMP_pressure;BME280_temperature;BME280_humidity;BME280_pressure;Samples;Min_cycle;Max_cycle;Signal;HPM_P1;HPM_P2
2023/03/15 00:01:45;;;;;;;11.27;1.50;;;2.60;99.90;;;;;;4995265;28;20081;-63
2023/03/15 00:04:12;;;;;;;16.00;2.33;;;2.60;99.90;;;;;;4987821;28;20081;-63
2023/03/15 00:06:38;;;;;;;10.77;1.83;;;2.50;99.90;;;;;;4984348;28;20081;-63
2023/03/15 00:09:04;;;;;;;15.07;2.28;;;2.60;99.90;;;;;;4988177;28;20097;-63
2023/03/15 00:11:30;;;;;;;8.00;0.77;;;2.60;99.90;;;;;;4988795;28;20035;-63
2023/03/15 00:13:56;;;;;;;14.00;2.00;;;2.60;99.90;;;;;;4970364;28;20137;-63
2023/03/15 00:16:25;;;;;;;10.82;1.42;;;2.60;99.90;;;;;;4970341;28;20105;-63
2023/03/15 00:18:53;;;;;;;10.90;1.92;;;2.60;99.90;;;;;;4988497;28;20125;-63
2023/03/15 00:21:19;;;;;;;9.80;1.80;;;2.60;99.90;;;;;;4988715;28;20035;-63
2023/03/15 00:23:45;;;;;;;15.30;2.30;;;2.60;99.90;;;;;;4981129;28;20400;-63
2023/03/15 00:26:11;;;;;;;12.45;1.50;;;2.60;99.90;;;;;;4990390;28;20053;-63
2023/03/15 00:28:38;;;;;;;13.93;2.28;;;2.70;99.90;;;;;;4970916;28;20054;-63
2023/03/15 00:31:15;;;;;;;18.02;2.85;;;2.80;99.90;;;;;;4988018;28;20150;-63
2023/03/15 00:33:41;;;;;;;13.07;1.92;;;2.70;99.90;;;;;;4987888;28;20500;-63
2023/03/15 00:36:09;;;;;;;12.55;2.17;;;2.70;99.90;;;;;;4987444;28;20055;-63
2023/03/15 00:38:36;;;;;;;18.33;1.70;;;2.60;99.90;;;;;;4987260;28;20058;-63
2023/03/15 00:41:14;;;;;;;10.00;1.75;;;2.50;99.90;;;;;;4979712;28;20089;-63
2023/03/15 00:43:40;;;;;;;5.75;1.23;;;2.50;99.90;;;;;;4969932;28;20064;-63
2023/03/15 00:46:08;;;;;;;11.35;1.48;;;2.40;99.90;;;;;;4970624;28;20050;-63
2023/03/15 00:48:34;;;;;;;12.88;1.58;;;2.40;99.90;;;;;;4986866;28;20077;-63
2023/03/15 00:51:11;;;;;;;16.70;2.03;;;2.30;99.90;;;;;;4980772;28;20042;-63
2023/03/15 00:53:39;;;;;;;16.52;2.03;;;2.20;99.90;;;;;;4999696;28;20042;-63
2023/03/15 00:56:11;;;;;;;10.65;1.85;;;2.20;99.90;;;;;;4978985;28;20532;-64
2023/03/15 00:58:38;;;;;;;16.27;1.55;;;2.20;99.90;;;;;;4987207;28;20082;-63
2023/03/15 01:01:08;;;;;;;14.10;2.83;;;2.20;99.90;;;;;;4985307;28;20954;-63
2023/03/15 01:03:34;;;;;;;;;;;2.20;99.90;;;;;;4987344;28;20291;-63
2023/03/15 01:06:05;;;;;;;17.27;4.93;;;2.20;99.90;;;;;;4986740;28;20300;-63
2023/03/15 01:08:30;;;;;;;12.63;3.53;;;2.20;99.90;;;;;;4986504;28;20046;-63
2023/03/15 01:11:02;;;;;;;17.95;4.60;;;2.20;99.90;;;;;;4970188;28;20053;-63
2023/03/15 01:13:27;;;;;;;14.55;3.97;;;2.20;99.90;;;;;;4985261;28;20409;-63
2023/03/15 01:15:53;;;;;;;16.00;3.00;;;2.20;99.90;;;;;;4987491;28;20038;-63
2023/03/15 01:18:19;;;;;;;13.52;2.88;;;2.20;99.90;;;;;;4985986;28;20042;-63
2023/03/15 01:20:45;;;;;;;10.80;2.00;;;2.20;99.90;;;;;;4986969;28;20053;-63
2023/03/15 01:23:10;;;;;;;10.40;1.80;;;2.10;99.90;;;;;;4995568;28;20113;-64
2023/03/15 01:25:36;;;;;;;14.95;3.03;;;2.10;99.90;;;;;;4986391;28;20093;-63
2023/03/15 01:28:02;;;;;;;16.35;3.33;;;2.00;99.90;;;;;;4983434;28;20046;-64
2023/03/15 01:30:27;;;;;;;17.52;3.13;;;2.00;99.90;;;;;;4976421;28;20046;-63
2023/03/15 01:32:53;;;;;;;11.82;2.42;;;2.00;99.90;;;;;;4995926;28;20042;-63
2023/03/15 01:35:22;;;;;;;7.97;2.40;;;2.00;99.90;;;;;;4985811;28;20057;-64
2023/03/15 01:37:51;;;;;;;21.73;4.05;;;2.00;99.90;;;;;;4986642;28;20058;-64
2023/03/15 01:40:17;;;;;;;18.50;3.92;;;2.00;99.90;;;;;;4986273;28;20054;-63
2023/03/15 01:43:04;;;;;;;15.60;3.85;;;2.00;99.90;;;;;;4986294;28;20125;-64
2023/03/15 01:46:01;;;;;;;12.60;3.38;;;1.90;99.90;;;;;;4987440;28;20038;-64
2023/03/15 01:48:43;;;;;;;15.60;2.13;;;1.90;99.90;;;;;;4985788;28;20050;-64
2023/03/15 01:51:37;;;;;;;4.72;1.50;;;2.00;99.90;;;;;;4986888;28;20047;-63
2023/03/15 01:54:21;;;;;;;7.68;1.05;;;2.10;99.90;;;;;;4985540;28;20062;-64
2023/03/15 01:56:53;;;;;;;13.90;1.92;;;2.30;99.90;;;;;;4987152;28;20057;-64
2023/03/15 01:59:30;;;;;;;12.70;1.92;;;2.40;99.90;;;;;;4986888;28;20046;-63
2023/03/15 02:01:57;;;;;;;10.52;1.30;;;2.50;99.90;;;;;;4986233;28;20517;-63
2023/03/15 02:04:30;;;;;;;14.07;1.60;;;2.70;99.90;;;;;;4975393;28;20581;-64
2023/03/15 02:06:59;;;;;;;14.20;1.98;;;2.90;99.90;;;;;;4993818;28;20038;-64
2023/03/15 02:09:46;;;;;;;8.80;1.00;;;2.90;99.90;;;;;;4985657;28;20057;-64
2023/03/15 02:12:12;;;;;;;8.40;1.45;;;3.10;99.90;;;;;;4986399;28;20505;-64
2023/03/15 02:14:39;;;;;;;11.25;1.42;;;3.20;99.20;;;;;;4985430;28;20061;-63
2023/03/15 02:17:05;;;;;;;11.88;1.55;;;3.30;98.20;;;;;;4991422;28;20042;-64
2023/03/15 02:19:45;;;;;;;11.77;1.42;;;3.30;98.30;;;;;;4990953;28;20384;-63
2023/03/15 02:22:22;;;;;;;9.30;1.75;;;3.40;98.10;;;;;;4990351;28;20046;-63
2023/03/15 02:24:59;;;;;;;13.02;1.52;;;3.40;97.50;;;;;;4972760;28;20596;-63
2023/03/15 02:27:31;;;;;;;13.23;1.30;;;3.00;97.60;;;;;;4990780;28;20507;-64
2023/03/15 02:29:57;;;;;;;9.48;2.05;;;2.80;99.70;;;;;;4990227;28;20046;-64
2023/03/15 02:32:23;;;;;;;16.98;4.03;;;2.60;99.90;;;;;;4991353;28;20088;-64
2023/03/15 02:34:48;;;;;;;16.15;4.10;;;2.50;99.90;;;;;;4991060;28;20491;-63
2023/03/15 02:37:14;;;;;;;22.10;4.13;;;2.50;99.90;;;;;;4990301;28;20066;-63
2023/03/15 02:39:40;;;;;;;11.73;3.22;;;2.50;99.90;;;;;;4988884;28;20050;-64
2023/03/15 02:42:06;;;;;;;16.55;2.70;;;2.40;99.90;;;;;;4991499;28;20054;-64
2023/03/15 02:44:36;;;;;;;16.30;1.98;;;2.30;99.90;;;;;;4988736;28;20031;-64
2023/03/15 02:47:15;;;;;;;13.13;1.95;;;2.30;99.90;;;;;;4988770;28;20377;-64
2023/03/15 02:49:45;;;;;;;19.15;2.72;;;2.30;99.90;;;;;;4990040;28;20485;-63
2023/03/15 02:52:12;;;;;;;13.88;2.10;;;2.40;99.90;;;;;;4989568;28;20096;-64
2023/03/15 02:54:42;;;;;;;15.07;2.85;;;2.50;99.90;;;;;;4989605;28;20414;-64
2023/03/15 02:57:09;;;;;;;27.00;3.70;;;2.60;99.90;;;;;;4988901;28;20088;-64
2023/03/15 02:59:34;;;;;;;19.05;2.28;;;2.60;99.90;;;;;;4971794;28;20065;-63
2023/03/15 03:02:00;;;;;;;24.00;2.90;;;2.50;99.80;;;;;;4995849;28;20403;-63
2023/03/15 03:04:26;;;;;;;18.67;2.72;;;2.60;97.10;;;;;;4989507;28;20046;-63
2023/03/15 03:06:52;;;;;;;26.42;3.20;;;2.70;94.70;;;;;;4988755;28;20047;-64
2023/03/15 03:09:17;;;;;;;19.38;2.50;;;2.70;92.90;;;;;;4989637;28;20042;-64
2023/03/15 03:11:43;;;;;;;20.65;2.78;;;2.80;92.10;;;;;;4992373;28;20065;-64
2023/03/15 03:14:12;;;;;;;16.50;2.85;;;2.80;91.70;;;;;;4988725;28;20390;-64
2023/03/15 03:16:39;;;;;;;14.38;2.67;;;2.80;91.00;;;;;;4976781;28;20054;-64
2023/03/15 03:19:05;;;;;;;15.30;3.70;;;2.80;91.40;;;;;;4971101;28;20066;-64
2023/03/15 03:21:30;;;;;;;16.85;2.55;;;2.70;91.40;;;;;;4989716;28;20038;-64
2023/03/15 03:23:56;;;;;;;21.65;2.67;;;2.60;92.50;;;;;;4988401;28;20042;-64
2023/03/15 03:26:26;;;;;;;19.95;2.70;;;2.60;93.00;;;;;;4988876;28;20046;-64
2023/03/15 03:28:53;;;;;;;;;;;2.50;94.40;;;;;;4989065;28;20497;-64
2023/03/15 03:31:25;;;;;;;31.83;4.40;;;2.40;94.80;;;;;;4990287;28;20402;-64
2023/03/15 03:33:51;;;;;;;20.70;3.22;;;2.30;96.00;;;;;;4980921;28;20050;-64
2023/03/15 03:36:17;;;;;;;19.65;2.80;;;2.20;97.30;;;;;;4970166;28;20501;-64
2023/03/15 03:38:45;;;;;;;17.73;2.60;;;2.20;97.80;;;;;;4988769;28;20058;-64
2023/03/15 03:41:12;;;;;;;14.98;2.50;;;2.20;97.90;;;;;;4988135;28;20046;-63
2023/03/15 03:43:38;;;;;;;20.52;3.17;;;2.10;97.30;;;;;;4999100;28;20112;-64
2023/03/15 03:46:04;;;;;;;17.30;3.28;;;2.20;96.90;;;;;;4971491;28;20129;-64
2023/03/15 03:48:31;;;;;;;26.50;4.00;;;2.30;97.00;;;;;;4988343;28;20046;-64
2023/03/15 03:50:57;;;;;;;23.80;3.17;;;2.40;97.80;;;;;;4988550;28;20488;-63
2023/03/15 03:53:23;;;;;;;22.15;2.47;;;2.50;97.20;;;;;;4979023;28;20046;-64
2023/03/15 03:55:49;;;;;;;17.13;1.90;;;2.50;98.70;;;;;;4988458;28;20077;-64
2023/03/15 03:58:15;;;;;;;20.23;3.30;;;2.80;99.10;;;;;;4988407;28;20050;-63
2023/03/15 04:00:41;;;;;;;16.52;2.85;;;2.90;97.40;;;;;;4986866;28;20453;-63
2023/03/15 04:03:07;;;;;;;17.45;2.40;;;3.00;97.00;;;;;;4989775;28;20039;-63
2023/03/15 04:05:33;;;;;;;12.85;2.25;;;3.10;96.10;;;;;;4988134;28;20374;-63
2023/03/15 04:07:59;;;;;;;17.58;2.33;;;3.10;97.10;;;;;;4971164;28;20045;-63
2023/03/15 04:10:27;;;;;;;16.63;2.65;;;3.10;97.50;;;;;;4987634;28;20405;-63
2023/03/15 04:12:57;;;;;;;12.63;2.20;;;3.10;97.50;;;;;;4988236;28;20046;-63
2023/03/15 04:15:23;;;;;;;11.75;1.52;;;3.00;95.30;;;;;;4990873;28;20414;-63
2023/03/15 04:17:54;;;;;;;11.82;1.77;;;2.90;92.30;;;;;;4987819;28;20125;-63
2023/03/15 04:20:25;;;;;;;13.73;2.08;;;3.00;92.30;;;;;;4988353;28;20105;-63
2023/03/15 04:22:52;;;;;;;11.90;2.10;;;2.90;92.40;;;;;;4986111;28;20064;-64
2023/03/15 04:25:19;;;;;;;7.22;1.67;;;2.80;90.00;;;;;;4989799;28;20580;-63
2023/03/15 04:27:44;;;;;;;9.45;1.60;;;2.90;91.50;;;;;;4969492;28;20104;-63
2023/03/15 04:30:11;;;;;;;15.18;1.75;;;2.90;94.40;;;;;;4988168;28;20046;-64
2023/03/15 04:32:37;;;;;;;10.57;1.27;;;3.00;94.50;;;;;;4987761;28;20487;-64
2023/03/15 04:35:04;;;;;;;8.88;1.23;;;2.90;92.80;;;;;;4976428;28;20034;-64
2023/03/15 04:37:31;;;;;;;10.75;1.55;;;2.90;93.00;;;;;;4977183;28;20185;-64
2023/03/15 04:39:57;;;;;;;11.77;1.67;;;2.90;95.10;;;;;;5000235;28;20065;-64
2023/03/15 04:42:24;;;;;;;14.52;1.85;;;2.90;94.70;;;;;;4980651;28;20422;-64
2023/03/15 04:44:52;;;;;;;10.63;1.27;;;2.80;95.40;;;;;;4973283;28;20178;-64
2023/03/15 04:47:19;;;;;;;7.35;1.35;;;2.80;93.60;;;;;;4987776;28;20173;-63
2023/03/15 04:49:45;;;;;;;18.52;3.10;;;2.70;93.40;;;;;;4985342;28;20182;-64
2023/03/15 04:52:10;;;;;;;10.60;2.08;;;2.70;92.40;;;;;;4987834;28;20042;-64
2023/03/15 04:54:38;;;;;;;9.43;2.13;;;2.60;91.50;;;;;;4953555;28;20058;-64
2023/03/15 04:57:04;;;;;;;8.50;1.50;;;2.60;91.00;;;;;;4986881;28;20054;-63
2023/03/15 04:59:30;;;;;;;3.55;1.00;;;2.50;90.60;;;;;;4987433;28;20050;-64
2023/03/15 05:01:55;;;;;;;9.20;2.47;;;2.40;82.80;;;;;;4976072;28;20132;-63
2023/03/15 05:04:21;;;;;;;4.30;1.25;;;2.40;77.00;;;;;;4993521;28;20046;-63
2023/03/15 05:06:47;;;;;;;11.27;1.80;;;2.50;70.70;;;;;;4986646;28;20493;-64
2023/03/15 05:09:17;;;;;;;9.98;1.83;;;2.50;70.90;;;;;;4987108;28;20045;-63
2023/03/15 05:11:45;;;;;;;11.52;2.22;;;2.40;67.40;;;;;;4986749;28;20121;-63
2023/03/15 05:14:11;;;;;;;7.10;1.45;;;2.50;67.20;;;;;;4970632;28;20393;-63
2023/03/15 05:16:37;;;;;;;2.75;0.95;;;2.50;66.10;;;;;;4987159;28;20441;-63
2023/03/15 05:19:03;;;;;;;6.63;1.58;;;2.50;65.30;;;;;;4986400;28;20137;-64
2023/03/15 05:21:28;;;;;;;6.07;1.42;;;2.40;66.40;;;;;;4987428;28;20041;-63
2023/03/15 05:23:54;;;;;;;16.98;2.75;;;2.40;67.50;;;;;;4987021;28;20512;-63
2023/03/15 05:26:20;;;;;;;5.05;1.40;;;2.40;69.20;;;;;;4987127;28;20043;-64
2023/03/15 05:28:45;;;;;;;14.25;1.63;;;2.30;69.10;;;;;;4986707;28;20125;-63
2023/03/15 05:31:11;;;;;;;18.00;1.48;;;2.20;71.50;;;;;;4986556;28;20662;-64
2023/03/15 05:33:39;;;;;;;8.35;1.60;;;2.20;74.90;;;;;;4985337;28;20161;-63
2023/03/15 05:36:05;;;;;;;9.07;1.45;;;2.20;75.50;;;;;;4987154;28;20122;-63
2023/03/15 05:38:31;;;;;;;5.50;1.00;;;2.20;79.00;;;;;;4986769;28;20605;-64
2023/03/15 05:40:56;;;;;;;9.27;1.45;;;2.20;81.40;;;;;;4985889;28;20121;-64
2023/03/15 05:43:22;;;;;;;5.05;0.98;;;2.10;82.00;;;;;;4986874;28;20158;-63
2023/03/15 05:45:48;;;;;;;4.15;0.70;;;2.10;81.90;;;;;;4987195;28;20046;-64
2023/03/15 05:48:14;;;;;;;6.15;1.42;;;2.00;81.80;;;;;;4985981;28;20141;-64
2023/03/15 05:50:40;;;;;;;8.18;0.60;;;2.00;83.50;;;;;;4986548;28;20523;-63
2023/03/15 05:53:06;;;;;;;8.68;1.90;;;1.90;84.50;;;;;;4985941;28;20086;-64
2023/03/15 05:55:31;;;;;;;6.53;0.98;;;1.90;86.00;;;;;;4989894;28;20037;-64
2023/03/15 05:57:57;;;;;;;4.07;0.80;;;1.90;86.20;;;;;;4993019;28;20590;-64
2023/03/15 06:00:23;;;;;;;3.33;0.65;;;1.90;88.50;;;;;;4986865;28;20054;-63
2023/03/15 06:02:49;;;;;;;1.45;0.45;;;1.90;90.30;;;;;;4964506;28;20046;-63
2023/03/15 06:05:15;;;;;;;5.43;0.88;;;1.90;91.30;;;;;;4986084;28;20050;-63
2023/03/15 06:07:40;;;;;;;5.38;1.00;;;1.90;92.50;;;;;;4985845;28;20045;-63
2023/03/15 06:10:07;;;;;;;7.82;0.88;;;1.90;93.70;;;;;;4985911;28;20050;-63
2023/03/15 06:12:32;;;;;;;8.45;1.08;;;2.00;94.10;;;;;;4986938;28;20046;-63
2023/03/15 06:14:58;;;;;;;4.38;1.30;;;2.00;94.80;;;;;;4960740;28;20056;-63
2023/03/15 06:17:24;;;;;;;6.13;1.23;;;2.00;95.30;;;;;;4991601;28;20069;-64
2023/03/15 06:19:49;;;;;;;7.25;1.00;;;2.00;95.70;;;;;;4968472;28;20056;-63
2023/03/15 06:22:18;;;;;;;11.13;1.30;;;2.10;95.90;;;;;;4978031;28;20038;-63
2023/03/15 06:24:44;;;;;;;6.75;1.52;;;2.20;96.80;;;;;;4989707;28;20050;-64
2023/03/15 06:27:10;;;;;;;5.82;0.70;;;2.30;97.30;;;;;;4987860;28;20050;-63
2023/03/15 06:29:36;;;;;;;12.65;2.35;;;2.40;97.10;;;;;;4985937;28;20588;-63
2023/03/15 06:32:02;;;;;;;4.05;0.75;;;2.30;95.90;;;;;;4969961;28;20046;-63
2023/03/15 06:34:28;;;;;;;11.60;1.08;;;2.30;93.30;;;;;;4978110;28;20082;-64
2023/03/15 06:36:54;;;;;;;7.03;0.75;;;2.30;93.10;;;;;;4985728;28;20089;-63
2023/03/15 06:39:20;;;;;;;11.68;1.35;;;2.30;93.50;;;;;;4985645;28;20524;-64
2023/03/15 06:41:46;;;;;;;9.98;1.17;;;2.20;94.10;;;;;;4987167;28;20050;-63
2023/03/15 06:44:11;;;;;;;8.55;1.10;;;2.10;94.30;;;;;;4998875;28;20034;-63
2023/03/15 06:46:37;;;;;;;12.27;1.33;;;2.10;95.20;;;;;;4987885;28;20470;-63
2023/03/15 06:49:03;;;;;;;5.75;0.98;;;2.20;95.70;;;;;;4986221;28;20137;-63
2023/03/15 06:51:29;;;;;;;4.63;1.15;;;2.30;95.50;;;;;;4968241;28;20046;-63
2023/03/15 06:53:55;;;;;;;10.40;1.80;;;2.30;95.40;;;;;;4985985;28;20046;-63
2023/03/15 06:56:21;;;;;;;7.82;1.75;;;2.40;96.10;;;;;;4984835;28;20119;-63
2023/03/15 06:58:46;;;;;;;9.63;1.00;;;2.60;96.90;;;;;;4984169;28;20101;-63
2023/03/15 07:01:14;;;;;;;9.57;1.08;;;2.70;97.20;;;;;;4975457;28;20074;-63
2023/03/15 07:03:40;;;;;;;7.93;1.35;;;2.70;96.90;;;;;;4985849;28;20556;-63
2023/03/15 07:06:06;;;;;;;7.55;1.27;;;2.70;96.80;;;;;;4999947;28;20046;-63
2023/03/15 07:08:32;;;;;;;10.23;1.15;;;2.90;96.90;;;;;;4993012;28;20038;-63
2023/03/15 07:10:58;;;;;;;12.07;1.52;;;2.90;96.50;;;;;;4989493;28;20049;-63
2023/03/15 07:13:23;;;;;;;12.95;1.42;;;2.90;96.40;;;;;;4981490;28;20053;-63
2023/03/15 07:15:53;;;;;;;4.03;0.98;;;3.00;96.80;;;;;;4994315;28;20034;-63
2023/03/15 07:18:19;;;;;;;11.90;2.30;;;3.00;96.30;;;;;;4979759;28;20057;-63
2023/03/15 07:20:45;;;;;;;8.68;1.33;;;3.10;95.80;;;;;;4994120;28;20113;-64
2023/03/15 07:23:11;;;;;;;10.82;1.40;;;3.00;95.10;;;;;;4977461;28;20127;-63
2023/03/15 07:25:37;;;;;;;8.40;2.20;;;3.20;95.10;;;;;;4978764;28;20043;-63
2023/03/15 07:28:03;;;;;;;6.93;1.17;;;3.20;94.20;;;;;;5000871;28;20048;-63
2023/03/15 07:30:28;;;;;;;8.40;1.25;;;3.30;94.40;;;;;;4972123;28;20046;-64
2023/03/15 07:32:54;;;;;;;12.50;1.45;;;3.40;94.70;;;;;;4991174;28;20057;-63
2023/03/15 07:35:20;;;;;;;9.02;1.40;;;3.40;95.10;;;;;;4997291;28;20046;-64
2023/03/15 07:37:46;;;;;;;7.32;1.48;;;3.40;94.20;;;;;;4989561;28;20049;-64
2023/03/15 07:40:12;;;;;;;12.40;1.92;;;3.60;94.60;;;;;;4988840;28;20069;-64
2023/03/15 07:42:41;;;;;;;12.55;2.03;;;3.60;95.30;;;;;;4988268;28;20487;-64
2023/03/15 07:45:09;;;;;;;4.82;1.20;;;3.60;94.40;;;;;;4989509;28;20089;-65
2023/03/15 07:47:35;;;;;;;6.60;1.08;;;3.70;94.80;;;;;;4981799;28;20061;-65
2023/03/15 07:50:01;;;;;;;5.28;1.20;;;3.80;92.10;;;;;;4988680;28;20046;-65
2023/03/15 07:52:26;;;;;;;15.55;1.60;;;3.80;92.30;;;;;;4977056;28;20499;-65
2023/03/15 07:54:52;;;;;;;10.50;1.30;;;3.80;92.50;;;;;;4988078;28;20492;-65
2023/03/15 07:57:18;;;;;;;9.43;2.20;;;3.90;93.50;;;;;;4971254;28;20080;-65
2023/03/15 07:59:44;;;;;;;8.48;1.55;;;3.90;91.30;;;;;;4970836;28;20412;-65
2023/03/15 08:02:12;;;;;;;11.23;1.13;;;4.00;91.90;;;;;;4992969;28;20404;-65
2023/03/15 08:04:38;;;;;;;10.15;1.15;;;4.00;91.40;;;;;;4991491;28;20074;-65
2023/03/15 08:07:04;;;;;;;9.63;1.30;;;4.10;92.30;;;;;;4988946;28;20495;-65
2023/03/15 08:09:32;;;;;;;7.30;0.93;;;4.20;92.30;;;;;;4980006;28;20109;-65
2023/03/15 08:11:58;;;;;;;7.97;1.33;;;4.30;93.20;;;;;;5000808;28;20057;-65
2023/03/15 08:14:23;;;;;;;13.32;2.00;;;4.40;93.50;;;;;;4972001;28;20045;-65
2023/03/15 08:16:49;;;;;;;13.13;1.17;;;4.50;92.40;;;;;;5003253;28;20042;-65
2023/03/15 08:19:15;;;;;;;18.80;2.35;;;4.60;91.50;;;;;;4974535;28;20053;-65
2023/03/15 08:21:44;;;;;;;12.95;1.15;;;4.70;88.90;;;;;;5005559;28;20562;-65
2023/03/15 08:24:14;;;;;;;7.30;1.55;;;4.80;91.00;;;;;;5005167;28;20092;-65
2023/03/15 08:26:42;;;;;;;9.10;0.68;;;4.90;90.70;;;;;;4993900;28;20141;-65
2023/03/15 08:29:08;;;;;;;17.27;2.85;;;4.90;83.30;;;;;;4988526;28;20050;-65
2023/03/15 08:31:33;;;;;;;8.80;0.98;;;5.00;85.30;;;;;;4998615;28;20686;-66
2023/03/15 08:33:59;;;;;;;13.95;1.08;;;5.00;90.00;;;;;;4996578;28;20128;-65
2023/03/15 08:36:25;;;;;;;10.23;1.88;;;5.10;87.70;;;;;;4995364;28;20054;-65
2023/03/15 08:38:51;;;;;;;14.43;2.13;;;5.20;81.10;;;;;;4987200;28;20058;-65
2023/03/15 08:41:16;;;;;;;17.85;2.63;;;5.20;85.50;;;;;;4988904;28;20050;-65
2023/03/15 08:43:43;;;;;;;12.00;2.10;;;5.20;86.10;;;;;;5005165;28;20489;-65
2023/03/15 08:46:08;;;;;;;18.58;2.38;;;5.20;81.40;;;;;;5003040;28;20046;-65
2023/03/15 08:48:34;;;;;;;12.02;2.30;;;5.30;86.00;;;;;;4999403;28;20523;-65
2023/03/15 08:51:05;;;;;;;9.85;1.65;;;5.30;89.20;;;;;;4977875;28;20050;-65
2023/03/15 08:53:31;;;;;;;15.70;3.50;;;5.40;90.30;;;;;;4993830;28;20124;-65
2023/03/15 08:55:57;;;;;;;8.23;1.38;;;5.50;85.60;;;;;;4995942;28;20505;-65
2023/03/15 08:58:23;;;;;;;6.20;1.92;;;5.50;88.10;;;;;;4998452;28;20054;-65
2023/03/15 09:00:50;;;;;;;8.73;1.17;;;5.60;85.40;;;;;;4998996;28;20555;-65
2023/03/15 09:03:16;;;;;;;3.45;0.70;;;5.60;83.00;;;;;;4993267;28;20081;-65
2023/03/15 09:05:42;;;;;;;9.93;1.77;;;5.60;84.00;;;;;;4999153;28;20084;-65
2023/03/15 09:08:08;;;;;;;10.57;1.55;;;5.70;85.70;;;;;;4997855;28;20042;-65
2023/03/15 09:10:33;;;;;;;11.18;1.73;;;5.80;82.60;;;;;;4984651;28;20119;-65
2023/03/15 09:12:59;;;;;;;8.88;2.17;;;5.80;76.90;;;;;;5001776;28;20081;-65
2023/03/15 09:15:25;;;;;;;14.20;2.50;;;5.80;72.70;;;;;;4999687;28;20125;-65
2023/03/15 09:17:51;;;;;;;11.10;2.05;;;5.80;87.20;;;;;;4968472;28;20148;-65
2023/03/15 09:20:20;;;;;;;8.02;1.60;;;6.00;80.70;;;;;;4989973;28;20034;-65
2023/03/15 09:22:54;;;;;;;4.25;0.80;;;6.00;80.10;;;;;;4991519;28;20054;-65
2023/03/15 09:25:21;;;;;;;6.95;0.93;;;6.10;72.90;;;;;;4989216;28;20105;-65
2023/03/15 09:27:47;;;;;;;9.52;1.83;;;6.20;71.90;;;;;;4992114;28;20046;-65
2023/03/15 09:30:13;;;;;;;18.02;2.33;;;6.20;68.00;;;;;;4997781;28;20121;-64
2023/03/15 09:32:39;;;;;;;8.63;1.13;;;6.20;73.30;;;;;;4991367;28;20069;-65
2023/03/15 09:35:08;;;;;;;13.00;1.98;;;6.20;77.20;;;;;;4986308;28;20042;-65
2023/03/15 09:37:35;;;;;;;18.75;2.35;;;6.30;71.70;;;;;;4986049;28;20505;-65
2023/03/15 09:40:01;;;;;;;14.90;2.22;;;6.50;82.10;;;;;;4986001;28;20567;-65
2023/03/15 09:42:50;;;;;;;13.55;2.78;;;6.60;69.60;;;;;;4998048;28;20483;-65
2023/03/15 09:45:45;;;;;;;11.98;1.80;;;6.60;74.60;;;;;;4987240;28;20049;-65
2023/03/15 09:48:16;;;;;;;9.23;2.00;;;6.60;67.80;;;;;;4969348;28;20491;-64
2023/03/15 09:50:47;;;;;;;14.02;2.97;;;6.70;67.00;;;;;;4989123;28;20143;-64
2023/03/15 09:53:31;;;;;;;15.18;2.40;;;6.70;68.30;;;;;;4989788;28;20066;-64
2023/03/15 09:55:57;;;;;;;7.80;1.70;;;6.70;67.20;;;;;;4986172;28;20047;-64
2023/03/15 09:58:34;;;;;;;11.57;2.70;;;6.70;66.00;;;;;;4971838;28;20050;-64
2023/03/15 10:01:12;;;;;;;16.85;2.25;;;6.70;70.30;;;;;;4963957;28;20053;-64
2023/03/15 10:03:49;;;;;;;12.45;2.63;;;6.60;69.80;;;;;;4987650;28;20058;-64
2023/03/15 10:06:27;;;;;;;14.05;2.90;;;6.70;55.30;;;;;;4993973;28;20054;-65
2023/03/15 10:08:58;;;;;;;13.82;2.95;;;6.80;60.80;;;;;;4991146;28;20037;-64
2023/03/15 10:11:35;;;;;;;14.90;1.85;;;6.70;49.60;;;;;;4986444;28;20609;-64
2023/03/15 10:14:16;;;;;;;15.88;2.65;;;6.90;61.60;;;;;;4988374;28;20035;-64
2023/03/15 10:16:45;;;;;;;11.45;2.13;;;7.00;60.10;;;;;;4986508;28;20049;-64
2023/03/15 10:19:24;;;;;;;14.13;2.45;;;7.10;58.40;;;;;;4996671;28;20449;-64
2023/03/15 10:22:08;;;;;;;17.63;2.60;;;6.90;52.60;;;;;;4996327;28;20062;-64
2023/03/15 10:24:51;;;;;;;9.35;1.90;;;6.70;51.60;;;;;;4989254;28;20042;-64
2023/03/15 10:27:30;;;;;;;4.30;1.23;;;6.80;53.40;;;;;;4994302;28;20049;-62
2023/03/15 10:29:59;;;;;;;15.05;2.13;;;7.20;48.20;;;;;;4989696;28;20045;-62
2023/03/15 10:32:34;;;;;;;5.78;1.40;;;7.40;50.90;;;;;;4992440;28;20045;-62
2023/03/15 10:35:00;;;;;;;9.60;2.00;;;7.40;53.00;;;;;;4988728;28;20082;-62
2023/03/15 10:37:26;;;;;;;16.45;2.95;;;7.30;46.60;;;;;;4983936;28;20138;-62
2023/03/15 10:39:55;;;;;;;10.52;1.25;;;7.30;50.60;;;;;;4999577;28;20046;-62
2023/03/15 10:42:30;;;;;;;13.73;2.97;;;7.40;42.60;;;;;;4978932;28;20057;-62
2023/03/15 10:44:56;;;;;;;16.15;3.05;;;7.50;51.80;;;;;;4977286;28;20041;-62
2023/03/15 10:47:24;;;;;;;13.98;2.63;;;7.50;47.70;;;;;;4997493;28;20034;-62
2023/03/15 10:49:57;;;;;;;8.60;1.73;;;7.70;49.10;;;;;;5000934;28;20042;-62
2023/03/15 10:52:56;;;;;;;12.20;2.03;;;7.80;42.00;;;;;;5003189;28;20441;-62
2023/03/15 10:55:38;;;;;;;5.82;1.27;;;7.80;41.00;;;;;;4977934;28;20061;-62
2023/03/15 10:58:20;;;;;;;13.48;3.10;;;7.60;42.70;;;;;;4997735;28;20420;-62
2023/03/15 11:01:06;;;;;;;18.55;3.33;;;7.30;44.90;;;;;;4987279;28;20129;-62
2023/03/15 11:03:33;;;;;;;16.95;2.13;;;7.00;43.70;;;;;;4996597;28;20052;-62
2023/03/15 11:06:00;;;;;;;13.93;2.58;;;7.10;51.90;;;;;;4997087;28;20054;-62
2023/03/15 11:08:37;;;;;;;11.65;2.33;;;7.30;44.80;;;;;;4993641;28;20046;-62
2023/03/15 11:11:03;;;;;;;8.13;2.15;;;7.60;43.40;;;;;;4989975;28;20121;-62
2023/03/15 11:13:31;;;;;;;15.40;2.65;;;7.40;39.10;;;;;;4971776;28;20133;-62
2023/03/15 11:16:04;;;;;;;12.13;2.10;;;7.40;42.90;;;;;;4988775;28;20523;-62
2023/03/15 11:19:00;;;;;;;13.05;2.40;;;7.40;35.20;;;;;;4988874;28;20186;-62
2023/03/15 11:21:33;;;;;;;10.55;2.35;;;7.70;41.80;;;;;;4989075;28;20085;-62
2023/03/15 11:24:04;;;;;;;10.95;1.92;;;7.60;43.00;;;;;;4977147;28;20177;-63
2023/03/15 11:26:39;;;;;;;17.42;2.35;;;7.40;44.20;;;;;;4983743;28;20049;-64
2023/03/15 11:29:25;;;;;;;14.70;2.67;;;7.50;48.60;;;;;;4999429;28;20144;-64
2023/03/15 11:31:52;;;;;;;4.75;1.05;;;7.70;38.50;;;;;;4989313;28;20073;-64
2023/03/15 11:34:58;;;;;;;12.32;2.40;;;7.90;42.00;;;;;;4989539;28;20047;-63
2023/03/15 11:37:48;;;;;;;11.60;2.60;;;7.80;41.00;;;;;;4991278;28;20066;-63
2023/03/15 11:40:16;;;;;;;;;;;7.70;41.80;;;;;;4993111;28;20038;-63
2023/03/15 11:42:56;;;;;;;9.38;2.03;;;7.30;38.30;;;;;;4978561;28;19933;-63
2023/03/15 11:45:58;;;;;;;14.98;3.20;;;7.30;36.00;;;;;;4970642;28;20113;-63
2023/03/15 11:48:46;;;;;;;9.65;1.73;;;7.50;35.30;;;;;;4988189;28;20108;-63
2023/03/15 11:51:12;;;;;;;6.55;1.73;;;7.60;31.70;;;;;;4991355;28;20496;-63
2023/03/15 11:53:58;;;;;;;11.45;2.78;;;7.80;29.00;;;;;;4991882;28;20073;-63
2023/03/15 11:56:27;;;;;;;13.02;2.15;;;8.00;35.50;;;;;;4988987;28;20452;-62
2023/03/15 11:59:10;;;;;;;10.52;2.22;;;8.00;35.80;;;;;;4999722;28;20103;-63
2023/03/15 12:01:36;;;;;;;8.05;1.13;;;8.20;37.90;;;;;;4994979;28;20062;-63
2023/03/15 12:04:24;;;;;;;10.52;1.83;;;8.30;32.80;;;;;;5003250;28;20053;-62
2023/03/15 12:06:54;;;;;;;10.10;2.88;;;8.30;35.90;;;;;;4992500;28;20042;-63
2023/03/15 12:09:31;;;;;;;16.33;3.00;;;8.30;36.00;;;;;;4994580;28;20038;-63
2023/03/15 12:12:23;;;;;;;14.88;2.30;;;8.10;36.60;;;;;;4976483;28;20050;-62
2023/03/15 12:15:13;;;;;;;14.60;2.70;;;8.10;35.40;;;;;;4989146;28;20753;-63
2023/03/15 12:17:49;;;;;;;12.65;1.67;;;8.20;32.50;;;;;;4997780;28;20100;-62
2023/03/15 12:20:18;;;;;;;11.35;1.70;;;8.30;35.00;;;;;;4991199;28;20045;-63
2023/03/15 12:23:03;;;;;;;10.82;2.45;;;8.40;25.50;;;;;;4999934;28;20132;-62
2023/03/15 12:25:37;;;;;;;4.53;0.88;;;8.50;27.20;;;;;;4982582;28;20053;-63
2023/03/15 12:28:09;;;;;;;14.70;1.33;;;8.50;23.10;;;;;;5000760;28;20544;-63
2023/03/15 12:30:44;;;;;;;9.23;2.30;;;8.60;22.00;;;;;;4959833;28;20941;-62
2023/03/15 12:33:18;;;;;;;4.28;0.98;;;8.80;29.20;;;;;;4980072;28;20125;-62
2023/03/15 12:35:45;;;;;;;12.45;2.60;;;8.70;25.80;;;;;;5001111;28;20129;-63
2023/03/15 12:38:16;;;;;;;10.30;2.00;;;8.60;27.50;;;;;;4999822;28;20513;-63
2023/03/15 12:40:57;;;;;;;11.50;2.38;;;8.60;26.90;;;;;;4997565;28;20040;-62
2023/03/15 12:43:42;;;;;;;5.05;1.17;;;8.30;26.40;;;;;;5000584;28;20121;-63
2023/03/15 12:46:46;;;;;;;7.10;1.20;;;8.10;27.50;;;;;;4993943;28;20042;-63
2023/03/15 12:49:26;;;;;;;7.43;2.33;;;8.10;21.90;;;;;;4996641;28;20046;-63
2023/03/15 12:52:04;;;;;;;3.33;0.63;;;8.20;32.40;;;;;;4999013;28;20042;-63
2023/03/15 12:54:42;;;;;;;6.05;0.90;;;8.50;21.30;;;;;;4994818;28;20422;-63
2023/03/15 12:57:15;;;;;;;5.40;1.45;;;8.50;21.50;;;;;;4996883;28;20076;-63
2023/03/15 13:00:00;;;;;;;8.60;1.75;;;8.70;17.30;;;;;;4991856;28;20050;-62
2023/03/15 13:02:35;;;;;;;0.70;0.50;;;8.60;17.40;;;;;;4996046;28;20048;-63
2023/03/15 13:05:29;;;;;;;9.77;1.42;;;8.60;16.80;;;;;;4970840;28;20054;-63